Time;durP1;ratioP1;P1;durP2;ratioP2;P2;SDS_P1;SDS_P2;PMS_P1;PMS_P2;Temp;Humidity;BMP_temperature;BMP_pressure;BME280_temperature;BME280_humidity;BME280_pressure;Samples;Min_cycle;Max_cycle;Signal;HPM_P1;HPM_P2
2021/09/23 00:00:10;;;;;;;7.22;2.60;;;;;;;9.25;68.84;100392.63;1684644;82;21055;-58
2021/09/23 00:05:21;;;;;;;5.58;2.65;;;;;;;9.20;68.88;100388.19;1696879;82;21189;-58
2021/09/23 00:07:50;;;;;;;5.22;2.27;;;;;;;9.13;68.95;100390.44;1683850;82;21663;-58
2021/09/23 00:10:28;;;;;;;4.75;2.02;;;;;;;9.11;69.15;100391.86;1700246;82;21127;-58
2021/09/23 00:12:56;;;;;;;5.37;2.77;;;;;;;9.19;69.12;100384.71;1708315;81;21444;-60
2021/09/23 00:15:23;;;;;;;5.62;2.50;;;;;;;9.26;69.02;100394.28;1699454;82;21102;-59
2021/09/23 00:17:55;;;;;;;5.53;2.52;;;;;;;9.26;68.97;100395.59;1694742;82;21086;-59
2021/09/23 00:20:27;;;;;;;6.08;2.80;;;;;;;9.21;69.10;100397.72;1667245;83;21075;-59
2021/09/23 00:22:53;;;;;;;6.30;3.00;;;;;;;9.17;69.32;100393.18;1698613;82;21052;-59
2021/09/23 00:25:20;;;;;;;6.42;2.95;;;;;;;9.11;69.46;100386.61;1703211;82;21134;-59
2021/09/23 00:27:46;;;;;;;6.60;2.87;;;;;;;9.08;69.57;100388.63;1699075;82;21063;-59
2021/09/23 00:30:13;;;;;;;6.45;3.17;;;;;;;9.09;69.60;100387.66;1696778;82;23360;-59
2021/09/23 00:32:40;;;;;;;6.10;3.10;;;;;;;9.15;69.54;100385.90;1755831;79;21314;-59
2021/09/23 00:35:08;;;;;;;10.63;3.15;;;;;;;9.26;69.45;100387.27;1748594;79;21142;-59
2021/09/23 00:37:35;;;;;;;5.00;2.58;;;;;;;9.30;69.34;100382.13;1731523;79;21039;-57
2021/09/23 00:40:08;;;;;;;6.47;3.10;;;;;;;9.30;69.26;100383.92;1747484;79;22433;-57
2021/09/23 00:42:38;;;;;;;7.85;3.45;;;;;;;9.28;69.27;100381.90;1747294;80;21109;-58
2021/09/23 00:45:06;;;;;;;6.08;2.85;;;;;;;9.23;69.23;100387.48;1746921;80;21561;-57
2021/09/23 00:47:34;;;;;;;6.55;2.90;;;;;;;9.21;69.32;100395.09;1748168;80;21537;-57
2021/09/23 00:50:02;;;;;;;7.12;3.42;;;;;;;9.17;69.50;100387.93;1733460;81;21058;-58
2021/09/23 00:52:31;;;;;;;5.87;3.45;;;;;;;9.19;69.54;100386.02;1733070;81;21096;-58
2021/09/23 00:54:58;;;;;;;8.60;3.60;;;;;;;9.32;69.56;100386.44;1747587;80;21082;-59
2021/09/23 00:57:24;;;;;;;6.35;3.22;;;;;;;9.42;69.18;100390.88;1746019;80;21078;-58
2021/09/23 00:59:54;;;;;;;6.35;3.17;;;;;;;9.46;69.05;100394.11;1745272;79;21607;-58
2021/09/23 01:02:21;;;;;;;7.08;3.42;;;;;;;9.46;68.95;100392.34;1747703;81;21079;-58
2021/09/23 01:04:49;;;;;;;8.78;3.42;;;;;;;9.44;69.05;100390.77;1718435;80;22031;-58
2021/09/23 01:07:19;;;;;;;7.37;3.98;;;;;;;9.45;69.03;100396.39;1750920;80;21832;-58
2021/09/23 01:09:53;;;;;;;7.92;3.30;;;;;;;9.44;68.90;100388.97;1746861;80;21134;-58
2021/09/23 01:12:23;;;;;;;7.70;3.33;;;;;;;9.51;68.89;100387.20;1752828;79;21031;-58
2021/09/23 01:14:51;;;;;;;6.65;2.87;;;;;;;9.60;68.65;100391.74;1748563;80;21030;-58
2021/09/23 01:17:18;;;;;;;5.95;3.00;;;;;;;9.56;68.39;100385.89;1747549;79;21106;-58
2021/09/23 01:19:48;;;;;;;5.80;3.30;;;;;;;9.44;68.64;100392.91;1742071;79;21513;-58
2021/09/23 01:22:15;;;;;;;6.55;3.12;;;;;;;9.36;68.87;100387.39;1743496;80;21137;-58
2021/09/23 01:25:19;;;;;;;6.58;2.67;;;;;;;9.32;69.18;100393.83;1668866;80;62662;-57
2021/09/23 01:27:46;;;;;;;7.03;2.72;;;;;;;9.28;69.26;100387.98;1630811;86;21593;-57
2021/09/23 01:30:15;;;;;;;6.70;3.02;;;;;;;9.25;69.30;100397.39;1630623;86;21094;-57
2021/09/23 01:32:44;;;;;;;5.95;2.62;;;;;;;9.32;69.39;100395.15;1656594;84;22039;-56
2021/09/23 01:35:12;;;;;;;7.05;3.33;;;;;;;9.42;69.22;100395.30;1636116;85;21057;-56
2021/09/23 01:37:40;;;;;;;6.12;3.30;;;;;;;9.44;69.08;100391.59;1662597;85;21064;-56
2021/09/23 01:40:10;;;;;;;7.72;3.33;;;;;;;9.48;69.05;100396.13;1663250;84;21101;-56
2021/09/23 01:42:41;;;;;;;8.73;3.15;;;;;;;9.53;69.08;100383.97;1662304;84;21090;-56
2021/09/23 01:45:09;;;;;;;6.45;3.30;;;;;;;9.58;68.94;100386.63;1628414;84;21115;-56
2021/09/23 01:47:38;;;;;;;5.80;2.90;;;;;;;9.53;68.76;100385.28;1655869;84;21572;-56
2021/09/23 01:50:07;;;;;;;7.45;2.35;;;;;;;9.49;68.61;100384.69;1661009;84;21042;-56
2021/09/23 01:52:34;;;;;;;5.85;2.92;;;;;;;9.48;68.59;100384.31;1659998;84;21583;-56
2021/09/23 01:55:06;;;;;;;6.55;3.50;;;;;;;9.48;68.57;100384.31;1659745;84;22315;-56
2021/09/23 01:57:33;;;;;;;6.12;3.00;;;;;;;9.44;68.55;100387.66;1665367;84;21116;-56
2021/09/23 01:59:59;;;;;;;5.05;2.55;;;;;;;9.36;68.66;100390.02;1661309;84;21524;-55
2021/09/23 02:02:27;;;;;;;6.55;2.47;;;;;;;9.24;68.84;100389.14;1655406;84;21103;-57
2021/09/23 02:04:54;;;;;;;6.72;3.02;;;;;;;9.15;69.15;100391.64;1655533;84;21060;-57
2021/09/23 02:07:22;;;;;;;5.47;2.72;;;;;;;9.07;69.48;100395.64;1634285;86;21521;-57
2021/09/23 02:09:50;;;;;;;6.40;3.15;;;;;;;9.04;69.77;100400.28;1634726;86;21110;-57
2021/09/23 02:12:20;;;;;;;5.40;2.80;;;;;;;9.07;69.83;100399.58;1662169;84;21690;-56
2021/09/23 02:14:49;;;;;;;5.30;2.35;;;;;;;9.17;69.87;100400.23;1664355;84;21406;-56
2021/09/23 02:17:16;;;;;;;6.42;2.45;;;;;;;9.30;69.74;100401.00;1661652;84;21133;-56
2021/09/23 02:19:46;;;;;;;6.65;2.70;;;;;;;9.35;69.50;100392.78;1659407;84;21130;-57
2021/09/23 02:22:13;;;;;;;5.80;2.85;;;;;;;9.36;69.51;100392.64;1660963;84;21293;-56
2021/09/23 02:24:40;;;;;;;7.08;3.00;;;;;;;9.36;69.17;100386.07;1659690;84;21099;-56
2021/09/23 02:27:07;;;;;;;7.75;2.45;;;;;;;9.34;69.29;100393.23;1669525;84;21707;-57
2021/09/23 02:29:34;;;;;;;5.87;2.85;;;;;;;9.31;69.34;100390.83;1648496;85;21059;-56
2021/09/23 02:32:03;;;;;;;5.20;2.65;;;;;;;9.28;69.37;100392.41;1668336;84;21138;-56
2021/09/23 02:34:30;;;;;;;5.60;3.00;;;;;;;9.35;69.30;100391.47;1668530;84;21558;-57
2021/09/23 02:36:57;;;;;;;6.40;2.45;;;;;;;9.43;69.14;100389.08;1666043;84;21126;-57
2021/09/23 02:39:23;;;;;;;8.60;3.08;;;;;;;9.46;68.89;100383.60;1649093;84;21092;-57
2021/09/23 02:41:49;;;;;;;8.35;3.22;;;;;;;9.45;68.96;100385.40;1661967;84;21051;-56
2021/09/23 02:44:18;;;;;;;5.97;3.47;;;;;;;9.47;68.93;100383.48;1668962;84;21162;-57
2021/09/23 02:46:45;;;;;;;5.10;2.72;;;;;;;9.43;68.78;100384.69;1666932;84;21207;-56
2021/09/23 02:49:11;;;;;;;5.92;2.60;;;;;;;9.43;68.72;100378.12;1669555;84;21736;-57
2021/09/23 02:51:39;;;;;;;6.40;3.00;;;;;;;9.47;68.49;100378.23;1670617;84;21142;-56
2021/09/23 02:54:06;;;;;;;6.50;3.10;;;;;;;9.52;68.36;100384.95;1669642;84;21119;-57
2021/09/23 02:56:33;;;;;;;6.55;3.40;;;;;;;9.54;68.42;100379.92;1669992;84;21002;-57
2021/09/23 02:59:01;;;;;;;4.85;2.62;;;;;;;9.56;68.59;100372.75;1670175;84;21581;-56
2021/09/23 03:01:27;;;;;;;5.83;3.08;;;;;;;9.58;68.37;100368.70;1668560;84;21091;-57
2021/09/23 03:03:55;;;;;;;5.95;2.67;;;;;;;9.54;68.29;100370.73;1643176;85;21073;-57
2021/09/23 03:06:22;;;;;;;5.55;2.62;;;;;;;9.47;68.26;100378.23;1668419;84;21000;-55
2021/09/23 03:08:48;;;;;;;6.17;2.50;;;;;;;9.38;68.26;100376.31;1669154;84;21103;-54
2021/09/23 03:11:15;;;;;;;8.08;2.70;;;;;;;9.38;68.41;100375.00;1670336;84;21202;-57
2021/09/23 03:13:42;;;;;;;6.55;2.75;;;;;;;9.39;68.55;100374.52;1669500;84;21032;-56
2021/09/23 03:16:11;;;;;;;6.00;2.77;;;;;;;9.37;68.64;100374.62;1664824;84;21079;-56
2021/09/23 03:18:37;;;;;;;4.60;2.70;;;;;;;9.29;68.49;100375.67;1650928;84;21664;-56
2021/09/23 03:21:04;;;;;;;5.72;2.70;;;;;;;9.25;68.80;100376.38;1670010;84;21016;-56
2021/09/23 03:23:30;;;;;;;5.85;3.20;;;;;;;9.25;68.95;100371.62;1667884;84;21142;-57
2021/09/23 03:25:58;;;;;;;6.55;3.37;;;;;;;9.28;69.10;100374.02;1673451;83;21074;-56
2021/09/23 03:28:25;;;;;;;6.17;2.65;;;;;;;9.33;69.01;100378.91;1679295;83;21078;-56
2021/09/23 03:30:51;;;;;;;5.42;2.27;;;;;;;9.44;68.73;100377.63;1677489;83;21173;-56
2021/09/23 03:33:18;;;;;;;5.37;2.67;;;;;;;9.49;68.55;100380.26;1677127;83;21142;-56
2021/09/23 03:35:45;;;;;;;6.00;3.00;;;;;;;9.54;68.44;100383.03;1677561;83;21410;-56
2021/09/23 03:38:11;;;;;;;5.30;3.10;;;;;;;9.54;68.42;100381.72;1652627;83;21079;-57
2021/09/23 03:40:39;;;;;;;5.80;2.85;;;;;;;9.51;68.07;100384.58;1680697;83;21079;-56
2021/09/23 03:43:06;;;;;;;5.97;3.00;;;;;;;9.48;68.26;100385.63;1649433;84;21161;-56
2021/09/23 03:45:34;;;;;;;92.67;38.20;;;;;;;9.45;68.25;100385.40;1674435;83;21067;-56
2021/09/23 03:48:01;;;;;;;10.05;5.05;;;;;;;9.46;69.42;100381.83;1675117;83;22880;-56
2021/09/23 03:50:29;;;;;;;8.18;3.92;;;;;;;9.56;68.77;100387.20;1680574;83;21447;-56
2021/09/23 03:52:57;;;;;;;9.43;4.37;;;;;;;9.60;68.33;100389.98;1677147;83;21118;-57
2021/09/23 03:55:23;;;;;;;7.28;3.17;;;;;;;9.57;68.36;100389.37;1677028;83;21094;-57
2021/09/23 03:57:50;;;;;;;6.05;3.02;;;;;;;9.56;68.25;100390.31;1648262;85;21094;-57
2021/09/23 04:00:24;;;;;;;6.80;2.75;;;;;;;9.51;68.15;100384.58;1650192;84;21142;-57
2021/09/23 04:02:52;;;;;;;5.17;2.47;;;;;;;9.49;68.37;100388.63;1650816;84;21039;-60
2021/09/23 04:05:21;;;;;;;5.90;2.58;;;;;;;9.41;68.42;100382.63;1672900;83;21344;-58
2021/09/23 04:07:49;;;;;;;5.35;2.92;;;;;;;9.38;68.65;100388.59;1675048;83;21046;-57
2021/09/23 04:10:18;;;;;;;5.80;3.22;;;;;;;9.41;68.65;100384.42;1676761;83;21743;-57
2021/09/23 04:12:47;;;;;;;6.33;3.05;;;;;;;9.49;68.43;100385.52;1675563;83;21731;-54
2021/09/23 04:15:13;;;;;;;7.20;3.05;;;;;;;9.60;68.11;100393.05;1677245;83;21078;-54
2021/09/23 04:17:40;;;;;;;6.35;3.00;;;;;;;9.64;67.74;100386.63;1676910;83;22240;-54
2021/09/23 04:20:08;;;;;;;5.47;2.77;;;;;;;9.60;67.68;100395.69;1678744;83;21239;-55
2021/09/23 04:22:36;;;;;;;5.92;3.15;;;;;;;9.49;67.80;100396.02;1679716;83;21035;-54
2021/09/23 04:25:05;;;;;;;6.17;2.92;;;;;;;9.41;68.24;100389.19;1647725;85;22026;-56
2021/09/23 04:27:33;;;;;;;8.93;3.65;;;;;;;9.35;68.33;100388.36;1656574;84;21126;-58
2021/09/23 04:30:00;;;;;;;4.70;2.47;;;;;;;9.27;68.47;100390.72;1656120;84;21097;-57
2021/09/23 04:32:26;;;;;;;6.15;2.90;;;;;;;9.29;68.50;100399.31;1657957;84;21745;-57
2021/09/23 04:34:56;;;;;;;5.90;2.75;;;;;;;9.41;68.41;100393.61;1656531;84;21174;-56
2021/09/23 04:37:22;;;;;;;8.18;3.27;;;;;;;9.51;68.13;100399.02;1658078;85;22111;-57
2021/09/23 04:39:51;;;;;;;5.92;2.95;;;;;;;9.54;68.07;100399.63;1656382;85;21517;-57
2021/09/23 04:42:17;;;;;;;6.45;3.30;;;;;;;9.56;68.06;100399.51;1653553;84;21148;-56
2021/09/23 04:44:44;;;;;;;8.23;3.87;;;;;;;9.53;67.81;100391.85;1654611;85;21543;-57
2021/09/23 04:47:11;;;;;;;7.00;3.15;;;;;;;9.49;67.81;100394.70;1660152;84;21045;-57
2021/09/23 04:49:40;;;;;;;6.80;3.08;;;;;;;9.43;67.79;100389.08;1629056;85;21627;-57
2021/09/23 04:52:07;;;;;;;7.28;3.08;;;;;;;9.39;68.07;100389.79;1655968;85;21090;-57
2021/09/23 04:54:34;;;;;;;6.40;3.17;;;;;;;9.42;68.13;100392.67;1611079;85;21086;-57
2021/09/23 04:57:02;;;;;;;5.03;2.55;;;;;;;9.49;67.82;100394.70;1656422;84;21024;-57
2021/09/23 04:59:30;;;;;;;6.83;3.17;;;;;;;9.52;67.49;100394.14;1657542;84;21146;-57
2021/09/23 05:01:57;;;;;;;9.28;3.45;;;;;;;9.52;67.42;100395.45;1658479;84;21139;-57
2021/09/23 05:04:23;;;;;;;7.60;3.62;;;;;;;9.57;67.57;100385.44;1657645;85;21009;-72
2021/09/23 05:06:54;;;;;;;7.00;3.72;;;;;;;9.61;67.31;100394.26;1634458;86;21038;-72
2021/09/23 05:09:20;;;;;;;6.08;3.58;;;;;;;9.58;67.29;100394.97;1657660;84;21085;-71
2021/09/23 05:11:48;;;;;;;7.25;3.98;;;;;;;9.53;67.43;100397.11;1658140;84;21094;-68
2021/09/23 05:14:17;;;;;;;7.67;3.20;;;;;;;9.50;67.51;100395.56;1658325;84;21125;-69
2021/09/23 05:16:45;;;;;;;9.63;3.77;;;;;;;9.47;67.55;100391.85;1659515;84;21023;-57
2021/09/23 05:19:13;;;;;;;6.37;3.52;;;;;;;9.51;67.53;100392.45;1658334;85;21126;-56
2021/09/23 05:21:41;;;;;;;7.78;3.50;;;;;;;9.58;67.02;100388.41;1653049;84;21558;-57
2021/09/23 05:24:12;;;;;;;9.85;4.53;;;;;;;9.64;67.03;100387.46;1656981;85;21017;-57
2021/09/23 05:26:39;;;;;;;6.90;3.47;;;;;;;9.70;66.92;100384.00;1647369;84;21173;-58
2021/09/23 05:29:08;;;;;;;6.75;3.27;;;;;;;9.67;66.78;100385.09;1646234;85;21605;-57
2021/09/23 05:31:35;;;;;;;9.93;4.15;;;;;;;9.63;66.75;100390.20;1641816;85;21102;-57
2021/09/23 05:34:03;;;;;;;6.72;3.62;;;;;;;9.61;66.95;100394.73;1643980;85;21126;-58
2021/09/23 05:36:31;;;;;;;6.05;3.30;;;;;;;9.59;67.07;100397.97;1646838;85;21077;-57
2021/09/23 05:38:59;;;;;;;6.42;3.70;;;;;;;9.62;67.08;100399.05;1622345;86;21043;-58
2021/09/23 05:41:27;;;;;;;6.65;3.37;;;;;;;9.68;66.88;100399.87;1645166;85;21375;-57
2021/09/23 05:43:53;;;;;;;6.62;3.35;;;;;;;9.74;66.77;100397.28;1644568;85;21106;-57
2021/09/23 05:46:19;;;;;;;5.83;3.42;;;;;;;9.85;66.32;100395.51;1646231;85;21125;-57
2021/09/23 05:48:46;;;;;;;7.00;3.47;;;;;;;9.93;66.18;100399.33;1647852;86;21084;-57
2021/09/23 05:51:12;;;;;;;6.62;3.45;;;;;;;9.95;65.79;100393.47;1648063;85;21925;-56
2021/09/23 05:56:17;;;;;;;7.03;3.30;;;;;;;9.96;65.38;100400.41;1789683;79;22884;-56
2021/09/23 05:58:46;;;;;;;6.17;3.37;;;;;;;9.88;65.59;100400.16;1769355;80;21019;-70
2021/09/23 06:01:15;;;;;;;5.67;3.15;;;;;;;9.88;65.49;100404.11;1768848;80;21540;-63
2021/09/23 06:03:44;;;;;;;5.80;3.05;;;;;;;9.85;65.73;100402.53;1776474;80;20990;-62
2021/09/23 06:06:11;;;;;;;6.50;3.08;;;;;;;9.89;65.61;100403.16;1769851;80;21090;-63
2021/09/23 06:08:37;;;;;;;8.78;4.03;;;;;;;9.96;65.46;100401.23;1718374;81;21714;-63
2021/09/23 06:11:05;;;;;;;8.28;3.58;;;;;;;10.02;65.57;100399.95;1711325;81;21068;-60
2021/09/23 06:13:32;;;;;;;7.00;3.00;;;;;;;10.06;65.14;100410.57;1716262;82;21121;-60
2021/09/23 06:15:59;;;;;;;6.85;3.33;;;;;;;10.00;65.03;100405.78;1712955;82;20974;-60
2021/09/23 06:18:25;;;;;;;7.95;3.70;;;;;;;9.92;65.08;100405.53;1720686;82;20991;-60
2021/09/23 06:20:53;;;;;;;8.40;3.35;;;;;;;9.88;65.25;100405.42;1716576;82;21085;-60
2021/09/23 06:23:20;;;;;;;6.60;3.33;;;;;;;9.91;65.11;100404.70;1715593;82;21093;-61
2021/09/23 06:25:48;;;;;;;5.53;2.95;;;;;;;9.94;64.82;100407.59;1684855;82;21498;-61
2021/09/23 06:28:14;;;;;;;5.67;3.17;;;;;;;9.99;64.87;100405.44;1712146;82;21189;-62
2021/09/23 06:30:41;;;;;;;6.53;3.62;;;;;;;10.06;64.94;100404.00;1685190;82;21073;-62
2021/09/23 06:33:08;;;;;;;5.33;3.40;;;;;;;10.20;64.52;100406.86;1718694;82;21093;-62
2021/09/23 06:35:35;;;;;;;6.67;3.98;;;;;;;10.26;64.48;100402.94;1709597;82;21129;-59
2021/09/23 06:38:01;;;;;;;5.45;2.65;;;;;;;10.33;63.93;100404.15;1712992;82;21090;-60
2021/09/23 06:40:28;;;;;;;6.25;3.20;;;;;;;10.36;63.72;100401.28;1714005;82;22467;-61
2021/09/23 06:42:55;;;;;;;6.78;3.22;;;;;;;10.44;63.32;100401.97;1716555;82;21125;-61
2021/09/23 06:45:22;;;;;;;5.40;3.05;;;;;;;10.44;63.39;100408.55;1716826;82;21177;-60
2021/09/23 06:47:49;;;;;;;7.55;3.65;;;;;;;10.38;63.29;100404.13;1713570;82;21189;-61
2021/09/23 06:50:15;;;;;;;7.72;4.72;;;;;;;10.35;63.75;100404.37;1716251;82;21955;-60
2021/09/23 06:52:44;;;;;;;7.08;3.42;;;;;;;10.39;63.80;100401.05;1716885;82;21074;-60
2021/09/23 06:55:11;;;;;;;5.58;2.87;;;;;;;10.47;63.83;100401.25;1710941;82;22513;-60
2021/09/23 06:57:37;;;;;;;6.90;2.70;;;;;;;10.59;63.53;100404.70;1696432;83;21369;-60
2021/09/23 07:00:22;;;;;;;9.95;3.47;;;;;;;10.71;63.15;100408.17;1697416;83;21082;-61
2021/09/23 07:02:53;;;;;;;6.08;2.90;;;;;;;10.78;62.61;100406.71;1744297;80;22433;-61
2021/09/23 07:05:24;;;;;;;5.95;3.25;;;;;;;10.83;62.31;100408.98;1754714;80;21541;-60
2021/09/23 07:07:50;;;;;;;6.20;3.00;;;;;;;10.83;61.75;100410.30;1736075;80;21160;-61
2021/09/23 07:10:17;;;;;;;6.50;3.10;;;;;;;10.81;61.93;100405.16;1741278;80;21514;-61
2021/09/23 07:12:45;;;;;;;8.55;3.12;;;;;;;10.86;62.17;100409.56;1759290;80;21551;-55
2021/09/23 07:15:12;;;;;;;5.12;2.58;;;;;;;10.94;61.79;100414.19;1734449;80;21265;-60
2021/09/23 07:17:38;;;;;;;4.78;2.20;;;;;;;10.96;61.67;100405.67;1753295;80;21043;-60
2021/09/23 07:20:07;;;;;;;5.62;2.75;;;;;;;10.96;60.85;100398.64;1738431;80;21035;-61
2021/09/23 07:22:36;;;;;;;6.90;2.25;;;;;;;10.95;60.81;100400.91;1753639;80;21086;-62
2021/09/23 07:25:03;;;;;;;5.70;2.55;;;;;;;10.95;60.52;100394.32;1752716;80;21122;-60
2021/09/23 07:27:31;;;;;;;4.67;2.15;;;;;;;10.97;60.29;100398.97;1756381;80;21129;-61
2021/09/23 07:29:59;;;;;;;5.05;2.12;;;;;;;11.01;60.19;100393.47;1754655;80;21535;-60
2021/09/23 07:32:26;;;;;;;4.78;2.30;;;;;;;11.04;60.13;100397.17;1758631;79;21569;-60
2021/09/23 07:34:53;;;;;;;5.28;2.10;;;;;;;10.99;60.05;100401.48;1747354;80;21219;-61
2021/09/23 07:37:23;;;;;;;4.55;1.85;;;;;;;10.92;59.92;100395.88;1753174;80;21129;-60
2021/09/23 07:39:52;;;;;;;4.90;2.20;;;;;;;10.89;59.87;100402.73;1755601;80;21211;-61
2021/09/23 07:42:19;;;;;;;4.05;1.60;;;;;;;10.87;60.15;100403.32;1750598;80;21651;-61
2021/09/23 07:44:46;;;;;;;3.08;1.05;;;;;;;10.86;60.04;100400.81;1753566;80;21110;-61
2021/09/23 07:47:13;;;;;;;3.72;1.00;;;;;;;10.86;60.43;100401.67;1753687;80;21109;-62
2021/09/23 07:49:40;;;;;;;3.25;1.10;;;;;;;10.89;60.36;100401.42;1755583;80;21736;-60
2021/09/23 07:52:07;;;;;;;4.20;1.27;;;;;;;10.87;60.48;100405.95;1757890;80;21379;-60
2021/09/23 07:54:35;;;;;;;6.17;2.02;;;;;;;10.82;60.71;100404.66;1757636;80;21641;-61
2021/09/23 07:57:02;;;;;;;3.85;1.40;;;;;;;10.76;60.70;100404.69;1769007;80;21044;-61
2021/09/23 07:59:31;;;;;;;4.60;1.67;;;;;;;10.72;60.97;100401.93;1763538;80;21170;-60
2021/09/23 08:16:37;;;;;;;5.30;1.60;;;;;;;12.41;57.36;100379.05;1842740;75;22027;-55
2021/09/23 08:19:23;;;;;;;4.03;1.67;;;;;;;12.54;56.72;100382.73;1813106;77;21537;-56
2021/09/23 08:21:58;;;;;;;5.53;2.07;;;;;;;12.45;56.45;100386.53;1817027;77;21128;-56
2021/09/23 08:24:25;;;;;;;3.42;1.30;;;;;;;12.40;56.58;100383.47;1827726;76;21375;-56
2021/09/23 08:26:52;;;;;;;3.45;1.00;;;;;;;12.37;55.77;100378.95;1817196;77;21077;-56
2021/09/23 08:29:20;;;;;;;3.45;1.50;;;;;;;12.26;55.25;100382.05;1815416;77;21547;-56
2021/09/23 08:31:46;;;;;;;3.67;1.52;;;;;;;12.14;55.17;100373.03;1814259;77;21106;-56
2021/09/23 08:34:13;;;;;;;3.87;1.55;;;;;;;11.98;55.52;100374.36;1818463;77;21183;-56
2021/09/23 08:36:40;;;;;;;3.70;1.22;;;;;;;11.78;56.22;100373.89;1815713;77;21034;-56
2021/09/23 08:39:08;;;;;;;5.92;1.90;;;;;;;11.59;56.99;100375.45;1816806;77;21097;-55
2021/09/23 08:41:35;;;;;;;5.55;1.80;;;;;;;11.49;56.99;100371.44;1810802;77;21567;-55
2021/09/23 08:44:02;;;;;;;5.00;1.50;;;;;;;11.37;57.23;100381.70;1815615;77;21089;-55
2021/09/23 08:46:33;;;;;;;4.05;1.25;;;;;;;11.19;57.65;100381.91;1813662;77;21117;-57
2021/09/23 08:48:59;;;;;;;4.45;1.42;;;;;;;11.04;58.53;100384.83;1817253;77;21097;-55
2021/09/23 08:51:28;;;;;;;3.85;0.90;;;;;;;10.88;59.00;100387.89;1814817;77;22503;-54
2021/09/23 08:53:54;;;;;;;3.02;0.95;;;;;;;10.81;59.53;100385.87;1818718;77;21143;-55
2021/09/23 08:56:23;;;;;;;2.45;0.80;;;;;;;10.72;59.56;100388.28;1786804;77;21044;-56
2021/09/23 08:58:50;;;;;;;2.27;0.90;;;;;;;10.70;59.89;100381.48;1815524;77;21116;-56
2021/09/23 09:01:18;;;;;;;3.95;1.20;;;;;;;10.74;60.14;100384.22;1812084;77;21088;-55
2021/09/23 09:04:00;;;;;;;2.12;0.60;;;;;;;10.76;60.41;100381.00;1816040;77;22266;-55
2021/09/23 09:06:57;;;;;;;2.15;0.62;;;;;;;10.79;60.66;100388.63;1794613;77;21060;-57
2021/09/23 09:09:38;;;;;;;2.30;0.98;;;;;;;10.83;60.65;100380.85;1759388;77;21057;-57
2021/09/23 09:12:11;;;;;;;2.33;0.80;;;;;;;10.86;60.46;100387.64;1765631;77;21087;-54
2021/09/23 09:14:42;;;;;;;6.35;0.88;;;;;;;10.87;60.16;100384.06;1818418;77;21677;-55
2021/09/23 09:17:08;;;;;;;2.55;0.80;;;;;;;10.84;60.57;100392.20;1819154;77;21069;-55
2021/09/23 09:19:55;;;;;;;2.42;1.10;;;;;;;10.83;60.73;100390.06;1821479;77;20978;-55
2021/09/23 09:22:24;;;;;;;3.12;1.17;;;;;;;10.81;61.15;100387.19;1823071;78;21348;-56
2021/09/23 09:25:05;;;;;;;2.80;1.30;;;;;;;10.83;61.26;100383.48;1823395;77;21757;-55
2021/09/23 09:27:40;;;;;;;4.55;1.20;;;;;;;10.94;61.18;100383.45;1821657;77;21096;-56
2021/09/23 09:30:19;;;;;;;3.80;1.00;;;;;;;11.05;60.77;100377.79;1832759;76;21445;-56
2021/09/23 09:32:58;;;;;;;6.62;1.00;;;;;;;11.10;60.91;100371.66;1819169;77;21545;-56
2021/09/23 09:35:34;;;;;;;3.52;0.95;;;;;;;11.09;61.41;100369.97;1819669;77;21854;-56
2021/09/23 09:38:04;;;;;;;3.00;0.98;;;;;;;11.11;60.88;100375.48;1814734;77;21869;-56
2021/09/23 09:40:34;;;;;;;3.90;1.10;;;;;;;11.07;61.13;100378.00;1814180;77;21509;-57
2021/09/23 09:43:06;;;;;;;3.12;1.27;;;;;;;10.98;61.26;100384.03;1820631;77;21068;-56
2021/09/23 09:45:36;;;;;;;3.42;1.07;;;;;;;10.95;61.63;100389.05;1819805;77;22476;-55
2021/09/23 09:48:04;;;;;;;3.27;1.10;;;;;;;10.95;61.81;100389.05;1820190;77;21056;-56
2021/09/23 09:50:36;;;;;;;3.80;1.50;;;;;;;10.95;61.64;100390.86;1823352;77;21065;-56
2021/09/23 09:53:12;;;;;;;3.52;1.12;;;;;;;10.95;61.58;100392.18;1814853;77;21353;-55
2021/09/23 09:55:48;;;;;;;4.05;1.77;;;;;;;10.92;61.88;100390.62;1823768;77;21013;-56
2021/09/23 09:58:20;;;;;;;3.70;1.40;;;;;;;10.89;62.05;100389.58;1820789;77;21101;-56
2021/09/23 10:00:46;;;;;;;6.22;2.65;;;;;;;10.91;62.49;100386.79;1797802;78;21574;-57
2021/09/23 10:03:14;;;;;;;5.40;2.05;;;;;;;10.91;63.03;100385.02;1826219;76;21049;-55
2021/09/23 10:05:43;;;;;;;4.15;1.52;;;;;;;10.95;63.02;100384.28;1822530;77;21535;-56
2021/09/23 10:08:10;;;;;;;4.33;1.92;;;;;;;10.97;62.50;100381.03;1820089;77;21073;-56
2021/09/23 10:10:38;;;;;;;4.22;1.47;;;;;;;11.02;62.36;100384.12;1809019;77;21558;-55
2021/09/23 10:13:07;;;;;;;3.77;1.12;;;;;;;11.09;61.59;100379.19;1770461;77;21065;-57
2021/09/23 10:15:34;;;;;;;2.58;1.00;;;;;;;11.18;61.61;100384.17;1824296;77;21896;-57
2021/09/23 10:18:07;;;;;;;4.00;1.40;;;;;;;11.30;61.84;100382.69;1815786;77;21002;-56
2021/09/23 10:20:34;;;;;;;4.10;1.20;;;;;;;11.48;61.16;100380.78;1814937;77;21121;-57
2021/09/23 10:23:03;;;;;;;3.50;0.88;;;;;;;11.71;60.69;100373.58;1820962;78;20983;-56
2021/09/23 10:25:32;;;;;;;3.17;1.10;;;;;;;11.92;59.45;100367.46;1817110;77;21816;-57
2021/09/23 10:28:03;;;;;;;3.42;1.20;;;;;;;12.05;58.34;100372.89;1815705;77;21053;-60
2021/09/23 10:30:38;;;;;;;3.52;1.32;;;;;;;12.10;57.50;100375.59;1815105;77;21077;-56
2021/09/23 10:33:06;;;;;;;2.75;0.90;;;;;;;12.05;57.88;100368.94;1791856;77;20990;-56
2021/09/23 10:35:33;;;;;;;2.55;1.10;;;;;;;12.03;57.02;100376.61;1817094;77;21154;-57
2021/09/23 10:38:06;;;;;;;3.10;1.20;;;;;;;12.02;57.27;100372.30;1818966;77;21519;-56
2021/09/23 10:40:35;;;;;;;3.00;1.07;;;;;;;11.98;57.58;100370.41;1820155;77;21089;-57
2021/09/23 10:43:06;;;;;;;3.67;1.10;;;;;;;11.94;57.72;100374.30;1828068;76;21057;-57
2021/09/23 10:45:35;;;;;;;3.85;1.27;;;;;;;11.86;58.08;100372.27;1818535;77;21053;-56
2021/09/23 10:48:04;;;;;;;2.92;1.07;;;;;;;11.74;58.71;100368.55;1817522;77;21489;-57
2021/09/23 10:50:34;;;;;;;2.80;0.90;;;;;;;11.61;58.92;100380.60;1823388;77;21080;-56
2021/09/23 10:53:05;;;;;;;2.30;0.72;;;;;;;11.41;59.87;100383.09;1831926;76;20999;-56
2021/09/23 10:55:35;;;;;;;2.95;0.70;;;;;;;11.19;60.45;100381.42;1818210;77;21100;-58
2021/09/23 10:58:06;;;;;;;2.15;0.60;;;;;;;11.07;61.40;100387.70;1812886;77;21046;-56
2021/09/23 11:00:35;;;;;;;2.00;0.62;;;;;;;11.09;61.40;100390.55;1819071;77;21462;-56
2021/09/23 11:03:05;;;;;;;2.87;1.05;;;;;;;11.09;61.25;100389.23;1821625;77;21019;-56
2021/09/23 11:05:32;;;;;;;2.30;0.75;;;;;;;11.03;61.55;100387.13;1817355;77;21093;-56
2021/09/23 11:08:01;;;;;;;2.35;0.98;;;;;;;10.95;62.40;100389.05;1817729;77;21023;-55
2021/09/23 11:10:29;;;;;;;3.05;0.85;;;;;;;10.91;62.39;100390.28;1819298;77;21112;-56
2021/09/23 11:12:58;;;;;;;3.30;0.98;;;;;;;10.88;62.62;100383.12;1817962;77;21449;-57
2021/09/23 11:15:29;;;;;;;1.70;0.60;;;;;;;10.86;63.14;100388.50;1812661;77;21583;-56
2021/09/23 11:18:00;;;;;;;1.77;0.65;;;;;;;10.86;63.07;100387.64;1811505;77;21455;-57
2021/09/23 11:20:31;;;;;;;2.52;0.82;;;;;;;10.86;62.80;100389.82;1805752;78;21117;-57
2021/09/23 11:23:06;;;;;;;3.67;1.00;;;;;;;10.81;63.08;100386.73;1806157;77;21014;-56
2021/09/23 11:25:49;;;;;;;2.90;0.85;;;;;;;10.84;63.38;100393.52;1782045;78;21046;-56
2021/09/23 11:28:21;;;;;;;2.47;0.87;;;;;;;10.94;63.17;100395.30;1790651;78;21065;-57
2021/09/23 11:30:51;;;;;;;3.08;1.05;;;;;;;11.01;63.14;100393.47;1804146;77;21123;-58
2021/09/23 11:33:23;;;;;;;3.10;1.07;;;;;;;11.03;63.68;100391.08;1807669;77;20979;-57
2021/09/23 11:35:52;;;;;;;3.25;1.10;;;;;;;11.05;63.99;100383.05;1808803;77;21544;-57
2021/09/23 11:38:20;;;;;;;3.20;0.80;;;;;;;11.09;63.70;100387.09;1806236;77;21050;-59
2021/09/23 11:40:51;;;;;;;2.80;0.72;;;;;;;11.08;63.40;100385.44;1808438;78;21091;-57
2021/09/23 11:43:22;;;;;;;3.75;1.10;;;;;;;10.99;62.93;100387.00;1806522;78;21148;-57
2021/09/23 11:45:53;;;;;;;2.67;0.85;;;;;;;10.93;63.54;100390.98;1817545;76;21037;-58
2021/09/23 11:48:24;;;;;;;7.62;1.00;;;;;;;10.92;63.85;100384.52;1808551;77;21124;-57
2021/09/23 11:50:58;;;;;;;4.10;1.00;;;;;;;10.87;63.62;100378.31;1813572;77;21125;-60
2021/09/23 11:53:34;;;;;;;3.43;1.00;;;;;;;10.83;63.84;100376.08;1808390;77;21034;-57
2021/09/23 11:56:16;;;;;;;4.97;1.57;;;;;;;10.85;64.12;100385.50;1809124;77;21244;-56